Hong Xiang 2 — BYBA — position and weather

sailwx.info

Track history (hours):
 
Tides and Currents Weather Stations Pressure Air Temp Water Temp Dewpoint Dewpoint Depression Visibility Wind Speed Wind Dir Waves Ship Positions

Hong Xiang 2

Last reported at 2014-Nov-23 03:20 UTC. Time now 2014-Nov-23 04:55 UTC.
Position N 22°30' E 113°45'.

Length 96 m; draft 5.2 m.

Type: Ship (hazmat cat A). MMSI: 413413000.

Date/timePositionNaut miles runAvg speedWind from/ knotsBaromVisibWave heightAir tempDewpointWater temp
2014-Nov-23 03:20N 22°30' E 113°45'911.5
2014-Nov-23 02:34N 22°22' E 113°47'1110.6
2014-Nov-23 01:34N 22°11' E 113°46'10 9.7
2014-Nov-23 00:33N 22°02' E 113°45'4 3.8
2014-Nov-22 23:25N 21°59' E 113°41'0 0.0
2014-Nov-22 22:25N 21°59' E 113°41'0 0.0
2014-Nov-22 21:13N 21°59' E 113°41'0 0.0
2014-Nov-22 20:13N 21°59' E 113°41'0 0.0
2014-Nov-22 17:25N 21°59' E 113°41'0 0.0
2014-Nov-22 16:13N 21°59' E 113°41'0 0.0
2014-Nov-22 15:13N 21°59' E 113°41'0 0.0
2014-Nov-22 12:31N 21°59' E 113°41'0 0.0
2014-Nov-22 11:31N 21°59' E 113°41'0 0.0
2014-Nov-22 10:25N 21°59' E 113°41'0 0.0
2014-Nov-22 09:19N 21°59' E 113°41'0 0.0
2014-Nov-22 08:31N 21°59' E 113°41'0 0.0
2014-Nov-22 07:25N 21°59' E 113°41'0 0.0
2014-Nov-22 06:31N 21°59' E 113°41'0 0.0
2014-Nov-22 03:13N 21°59' E 113°41'0 0.0
2014-Nov-22 02:25N 21°59' E 113°41'0 0.0
2014-Nov-22 01:31N 21°59' E 113°41'0 0.0
2014-Nov-22 00:31N 21°59' E 113°41'0 0.0
2014-Nov-21 23:31N 21°59' E 113°41'0 0.0
2014-Nov-21 22:19N 21°59' E 113°41'0 0.0
2014-Nov-21 21:25N 21°59' E 113°41'0 0.0
2014-Nov-21 20:25N 21°59' E 113°41'0 0.0
2014-Nov-21 18:25N 21°59' E 113°41'0 0.0
2014-Nov-21 16:19N 21°59' E 113°41'0 0.0
2014-Nov-21 14:07N 21°59' E 113°41'0 0.0
2014-Nov-21 13:13N 21°59' E 113°41'1 2.2
2014-Nov-21 12:33N 21°58' E 113°40'21 9.5
2014-Nov-21 10:21N 21°47' E 113°20'190 8.3
2014-Nov-20 11:27N 20°12' E 110°25'8 8.7
2014-Nov-20 10:33N 20°10' E 110°17'69 8.6
2014-Nov-20 02:32N 19°49' E 109°07'4 4.1
2014-Nov-20 01:33N 19°46' E 109°10'0 0.0
2014-Nov-20 00:25N 19°46' E 109°10'0 0.0
2014-Nov-19 11:20N 19°46' E 109°10'2 3.0
2014-Nov-19 10:33N 19°44' E 109°08'0 0.0
2014-Nov-19 09:28N 19°44' E 109°08'0 0.0
2014-Nov-19 08:31N 19°44' E 109°08'0 0.0
2014-Nov-19 07:31N 19°44' E 109°08'0 0.0
2014-Nov-19 06:28N 19°44' E 109°08'0 0.0
2014-Nov-19 05:31N 19°44' E 109°08'0 0.0
2014-Nov-19 04:31N 19°44' E 109°08'0 0.0
2014-Nov-19 03:28N 19°44' E 109°08'0 0.0
2014-Nov-19 02:22N 19°44' E 109°08'0 0.0
2014-Nov-19 01:28N 19°44' E 109°08'0 0.0
2014-Nov-19 00:31N 19°44' E 109°08'0 0.0
2014-Nov-18 23:25N 19°44' E 109°08'0 0.0
2014-Nov-18 22:31N 19°44' E 109°08'0 0.0
2014-Nov-18 21:31N 19°44' E 109°08'0 0.1
2014-Nov-18 20:31N 19°44' E 109°09'0 0.1
2014-Nov-18 19:31N 19°44' E 109°08'0 0.0
2014-Nov-18 18:25N 19°44' E 109°08'0 0.1
2014-Nov-18 17:31N 19°44' E 109°09'0 0.1
2014-Nov-18 16:22N 19°44' E 109°08'0 0.0
2014-Nov-18 15:31N 19°44' E 109°08'0 0.0
2014-Nov-18 14:31N 19°44' E 109°08'0 0.0
2014-Nov-18 13:28N 19°44' E 109°08'0 0.0
2014-Nov-18 12:25N 19°44' E 109°08'0 0.1
2014-Nov-18 11:28N 19°44' E 109°09'0 0.0
2014-Nov-18 10:31N 19°44' E 109°09'0 0.0
2014-Nov-18 09:22N 19°44' E 109°09'0 0.0
2014-Nov-18 08:19N 19°44' E 109°09'0 0.0
2014-Nov-18 07:31N 19°44' E 109°09'0 0.0
2014-Nov-18 06:31N 19°44' E 109°09'0 0.0
2014-Nov-18 04:31N 19°44' E 109°09'0 0.1
2014-Nov-18 03:31N 19°44' E 109°08'0 0.0
2014-Nov-18 02:28N 19°44' E 109°08'0 0.0
2014-Nov-18 01:31N 19°44' E 109°08'0 0.0
2014-Nov-18 00:28N 19°44' E 109°08'0 0.0
2014-Nov-17 23:31N 19°44' E 109°08'0 0.0
2014-Nov-17 22:31N 19°44' E 109°08'0 0.0
2014-Nov-17 21:25N 19°44' E 109°08'0 0.0
2014-Nov-17 20:28N 19°44' E 109°08'2 1.9
2014-Nov-17 19:33N 19°45' E 109°07'6310.4
2014-Nov-17 13:33N 20°10' E 110°08'1111.4
2014-Nov-17 12:33N 20°12' E 110°20'17410.5
2014-Nov-16 20:04N 21°37' E 113°02'2011.6
2014-Nov-16 18:22N 21°48' E 113°20'61 8.9
2014-Nov-16 11:29N 22°47' E 113°38'8 8.7
2014-Nov-16 10:33N 22°54' E 113°34'3 0.7
2014-Nov-16 06:28N 22°57' E 113°33'0 0.0
2014-Nov-16 02:28N 22°57' E 113°33'0 0.0
2014-Nov-16 00:15N 22°57' E 113°33'3 3.7
2014-Nov-15 23:33N 22°55' E 113°34'9 9.3
2014-Nov-15 22:32N 22°46' E 113°38'19 9.7
2014-Nov-15 20:33N 22°28' E 113°45'10 9.9
2014-Nov-15 19:33N 22°18' E 113°48'8 8.4
2014-Nov-15 18:33N 22°10' E 113°51'  
Track history (hours):
 
Tides and Currents Weather Stations Pressure Air Temp Water Temp Dewpoint Dewpoint Depression Visibility Wind Speed Wind Dir Waves Ship Positions

Hong Xiang 2

Last reported at 2014-Nov-23 03:20 UTC. Time now 2014-Nov-23 04:55 UTC.
Position N 22°30' E 113°45'.

Length 96 m; draft 5.2 m.

Type: Ship (hazmat cat A). MMSI: 413413000.

Date/timePositionNaut miles runAvg speedWind from/ knotsBaromVisibWave heightAir tempDewpointWater temp
2014-Nov-23 03:20N 22°30' E 113°45'911.5
2014-Nov-23 02:34N 22°22' E 113°47'1110.6
2014-Nov-23 01:34N 22°11' E 113°46'10 9.7
2014-Nov-23 00:33N 22°02' E 113°45'4 3.8
2014-Nov-22 23:25N 21°59' E 113°41'0 0.0
2014-Nov-22 22:25N 21°59' E 113°41'0 0.0
2014-Nov-22 21:13N 21°59' E 113°41'0 0.0
2014-Nov-22 20:13N 21°59' E 113°41'0 0.0
2014-Nov-22 17:25N 21°59' E 113°41'0 0.0
2014-Nov-22 16:13N 21°59' E 113°41'0 0.0
2014-Nov-22 15:13N 21°59' E 113°41'0 0.0
2014-Nov-22 12:31N 21°59' E 113°41'0 0.0
2014-Nov-22 11:31N 21°59' E 113°41'0 0.0
2014-Nov-22 10:25N 21°59' E 113°41'0 0.0
2014-Nov-22 09:19N 21°59' E 113°41'0 0.0
2014-Nov-22 08:31N 21°59' E 113°41'0 0.0
2014-Nov-22 07:25N 21°59' E 113°41'0 0.0
2014-Nov-22 06:31N 21°59' E 113°41'0 0.0
2014-Nov-22 03:13N 21°59' E 113°41'0 0.0
2014-Nov-22 02:25N 21°59' E 113°41'0 0.0
2014-Nov-22 01:31N 21°59' E 113°41'0 0.0
2014-Nov-22 00:31N 21°59' E 113°41'0 0.0
2014-Nov-21 23:31N 21°59' E 113°41'0 0.0
2014-Nov-21 22:19N 21°59' E 113°41'0 0.0
2014-Nov-21 21:25N 21°59' E 113°41'0 0.0
2014-Nov-21 20:25N 21°59' E 113°41'0 0.0
2014-Nov-21 18:25N 21°59' E 113°41'0 0.0
2014-Nov-21 16:19N 21°59' E 113°41'0 0.0
2014-Nov-21 14:07N 21°59' E 113°41'0 0.0
2014-Nov-21 13:13N 21°59' E 113°41'1 2.2
2014-Nov-21 12:33N 21°58' E 113°40'21 9.5
2014-Nov-21 10:21N 21°47' E 113°20'190 8.3
2014-Nov-20 11:27N 20°12' E 110°25'8 8.7
2014-Nov-20 10:33N 20°10' E 110°17'69 8.6
2014-Nov-20 02:32N 19°49' E 109°07'4 4.1
2014-Nov-20 01:33N 19°46' E 109°10'0 0.0
2014-Nov-20 00:25N 19°46' E 109°10'0 0.0
2014-Nov-19 11:20N 19°46' E 109°10'2 3.0
2014-Nov-19 10:33N 19°44' E 109°08'0 0.0
2014-Nov-19 09:28N 19°44' E 109°08'0 0.0
2014-Nov-19 08:31N 19°44' E 109°08'0 0.0
2014-Nov-19 07:31N 19°44' E 109°08'0 0.0
2014-Nov-19 06:28N 19°44' E 109°08'0 0.0
2014-Nov-19 05:31N 19°44' E 109°08'0 0.0
2014-Nov-19 04:31N 19°44' E 109°08'0 0.0
2014-Nov-19 03:28N 19°44' E 109°08'0 0.0
2014-Nov-19 02:22N 19°44' E 109°08'0 0.0
2014-Nov-19 01:28N 19°44' E 109°08'0 0.0
2014-Nov-19 00:31N 19°44' E 109°08'0 0.0
2014-Nov-18 23:25N 19°44' E 109°08'0 0.0
2014-Nov-18 22:31N 19°44' E 109°08'0 0.0
2014-Nov-18 21:31N 19°44' E 109°08'0 0.1
2014-Nov-18 20:31N 19°44' E 109°09'0 0.1
2014-Nov-18 19:31N 19°44' E 109°08'0 0.0
2014-Nov-18 18:25N 19°44' E 109°08'0 0.1
2014-Nov-18 17:31N 19°44' E 109°09'0 0.1
2014-Nov-18 16:22N 19°44' E 109°08'0 0.0
2014-Nov-18 15:31N 19°44' E 109°08'0 0.0
2014-Nov-18 14:31N 19°44' E 109°08'0 0.0
2014-Nov-18 13:28N 19°44' E 109°08'0 0.0
2014-Nov-18 12:25N 19°44' E 109°08'0 0.1
2014-Nov-18 11:28N 19°44' E 109°09'0 0.0
2014-Nov-18 10:31N 19°44' E 109°09'0 0.0
2014-Nov-18 09:22N 19°44' E 109°09'0 0.0
2014-Nov-18 08:19N 19°44' E 109°09'0 0.0
2014-Nov-18 07:31N 19°44' E 109°09'0 0.0
2014-Nov-18 06:31N 19°44' E 109°09'0 0.0
2014-Nov-18 04:31N 19°44' E 109°09'0 0.1
2014-Nov-18 03:31N 19°44' E 109°08'0 0.0
2014-Nov-18 02:28N 19°44' E 109°08'0 0.0
2014-Nov-18 01:31N 19°44' E 109°08'0 0.0
2014-Nov-18 00:28N 19°44' E 109°08'0 0.0
2014-Nov-17 23:31N 19°44' E 109°08'0 0.0
2014-Nov-17 22:31N 19°44' E 109°08'0 0.0
2014-Nov-17 21:25N 19°44' E 109°08'0 0.0
2014-Nov-17 20:28N 19°44' E 109°08'2 1.9
2014-Nov-17 19:33N 19°45' E 109°07'6310.4
2014-Nov-17 13:33N 20°10' E 110°08'1111.4
2014-Nov-17 12:33N 20°12' E 110°20'17410.5
2014-Nov-16 20:04N 21°37' E 113°02'2011.6
2014-Nov-16 18:22N 21°48' E 113°20'61 8.9
2014-Nov-16 11:29N 22°47' E 113°38'8 8.7
2014-Nov-16 10:33N 22°54' E 113°34'3 0.7
2014-Nov-16 06:28N 22°57' E 113°33'0 0.0
2014-Nov-16 02:28N 22°57' E 113°33'0 0.0
2014-Nov-16 00:15N 22°57' E 113°33'3 3.7
2014-Nov-15 23:33N 22°55' E 113°34'9 9.3
2014-Nov-15 22:32N 22°46' E 113°38'19 9.7
2014-Nov-15 20:33N 22°28' E 113°45'10 9.9
2014-Nov-15 19:33N 22°18' E 113°48'8 8.4
2014-Nov-15 18:33N 22°10' E 113°51'  

Dump ship's entire track history